Terminal Aerodrome Forecast
Issued by NWS

Home | Current Version | Previous Version | Text Only | Print | Product List | Glossary On
Versions: 1 2 3 4 5 6 7 8 9 10 11 12 13 14 15 16 17
000
FTUS43 KIWX 310500
TAFSBN
TAF
KSBN 310520Z 3106/0106 23006KT P6SM VCSH BKN035 OVC070
     FM310900 23003KT 4SM BR BKN008 OVC015
      TEMPO 3111/3113 2SM BR OVC004
     FM311600 22005KT P6SM BKN020
     FM311900 23006KT P6SM SCT030=

USA.gov is the U.S. government's official web portal to all federal, state and local government web resources and services.